Time;durP1;ratioP1;P1;durP2;ratioP2;P2;SDS_P1;SDS_P2;PMS_P1;PMS_P2;Temp;Humidity;BMP_temperature;BMP_pressure;BME280_temperature;BME280_humidity;BME280_pressure;Samples;Min_cycle;Max_cycle;Signal;HPM_P1;HPM_P2
2021/09/12 00:00:47;;;;;;;6.00;4.20;;;14.70;99.90;;;;;;5089895;28;20488;-69
2021/09/12 00:03:13;;;;;;;6.03;4.30;;;14.70;99.90;;;;;;5090419;28;20469;-69
2021/09/12 00:05:40;;;;;;;7.70;4.43;;;14.70;99.90;;;;;;5090611;28;20465;-70
2021/09/12 00:08:07;;;;;;;5.90;4.33;;;14.60;99.90;;;;;;5090448;28;20993;-69
2021/09/12 00:10:34;;;;;;;6.03;4.13;;;14.60;99.90;;;;;;5089875;28;20454;-70
2021/09/12 00:13:00;;;;;;;4.73;4.33;;;14.60;99.90;;;;;;5090473;28;20465;-69
2021/09/12 00:15:28;;;;;;;4.77;4.17;;;14.50;99.90;;;;;;5090656;28;20460;-69
2021/09/12 00:17:55;;;;;;;4.03;3.57;;;14.50;99.90;;;;;;5090527;28;20853;-69
2021/09/12 00:20:22;;;;;;;4.10;3.70;;;14.50;99.90;;;;;;5090321;28;20453;-69
2021/09/12 00:22:49;;;;;;;5.03;4.10;;;14.50;99.90;;;;;;5090087;28;20453;-69
2021/09/12 00:25:15;;;;;;;5.23;3.90;;;14.50;99.90;;;;;;5090359;28;20941;-69
2021/09/12 00:27:42;;;;;;;6.63;4.23;;;14.40;99.90;;;;;;5090299;28;20473;-70
2021/09/12 00:30:10;;;;;;;4.40;3.83;;;14.50;99.90;;;;;;5090318;28;20458;-69
2021/09/12 00:32:38;;;;;;;5.63;3.90;;;14.50;99.90;;;;;;5089940;28;20464;-69
2021/09/12 00:35:06;;;;;;;5.10;4.10;;;14.40;99.90;;;;;;5090283;28;20941;-69
2021/09/12 00:37:33;;;;;;;4.10;3.80;;;14.40;99.90;;;;;;5090370;28;20488;-69
2021/09/12 00:40:00;;;;;;;4.10;3.80;;;14.40;99.90;;;;;;5092066;28;20468;-69
2021/09/12 00:42:26;;;;;;;4.40;4.00;;;14.40;99.90;;;;;;5093756;28;21012;-69
2021/09/12 00:44:53;;;;;;;4.33;3.93;;;14.30;99.90;;;;;;5094118;28;20462;-69
2021/09/12 00:47:20;;;;;;;3.80;3.50;;;14.30;99.90;;;;;;5094200;28;20484;-69
2021/09/12 00:49:48;;;;;;;5.80;4.33;;;14.30;99.90;;;;;;5094081;28;20454;-69
2021/09/12 00:52:15;;;;;;;4.60;4.10;;;14.30;99.90;;;;;;5093472;28;20453;-69
2021/09/12 00:54:43;;;;;;;5.73;4.03;;;14.20;99.90;;;;;;5094098;28;20464;-69
2021/09/12 00:57:11;;;;;;;4.27;3.93;;;14.20;99.90;;;;;;5092391;28;20485;-70
2021/09/12 00:59:39;;;;;;;3.70;3.40;;;14.10;99.90;;;;;;5094148;28;20469;-70
2021/09/12 01:02:06;;;;;;;8.03;4.20;;;14.10;99.90;;;;;;5092937;28;20827;-70
2021/09/12 01:04:35;;;;;;;4.30;3.90;;;14.10;99.90;;;;;;5093758;28;20465;-70
2021/09/12 01:07:05;;;;;;;5.67;4.30;;;14.00;99.90;;;;;;5093346;28;20477;-70
2021/09/12 01:09:34;;;;;;;4.63;3.77;;;14.00;99.90;;;;;;5093992;28;20457;-70
2021/09/12 01:12:01;;;;;;;6.37;4.00;;;14.00;99.90;;;;;;5092968;28;20490;-69
2021/09/12 01:14:30;;;;;;;4.47;4.00;;;14.00;99.90;;;;;;5093798;28;20457;-70
2021/09/12 01:16:57;;;;;;;6.00;4.40;;;13.90;99.90;;;;;;5093607;28;20465;-70
2021/09/12 01:19:24;;;;;;;5.07;4.57;;;13.90;99.90;;;;;;5093412;28;20829;-69
2021/09/12 01:21:55;;;;;;;6.63;4.70;;;13.90;99.90;;;;;;5093060;28;20485;-69
2021/09/12 01:24:24;;;;;;;7.10;4.20;;;13.80;99.90;;;;;;5091927;28;20501;-69
2021/09/12 01:26:50;;;;;;;4.90;4.40;;;13.80;99.90;;;;;;5093495;28;20461;-70
2021/09/12 01:29:17;;;;;;;5.43;4.00;;;13.80;99.90;;;;;;5093174;28;20488;-70
2021/09/12 01:31:44;;;;;;;4.20;3.80;;;13.80;99.90;;;;;;5092866;28;20941;-70
2021/09/12 01:34:11;;;;;;;5.27;4.77;;;13.80;99.90;;;;;;5093046;28;20469;-70
2021/09/12 01:36:38;;;;;;;5.77;4.27;;;13.70;99.90;;;;;;5093315;28;20457;-69
2021/09/12 01:39:06;;;;;;;6.77;4.00;;;13.70;99.90;;;;;;5093110;28;20484;-69
2021/09/12 01:41:34;;;;;;;6.03;4.30;;;13.60;99.90;;;;;;5092537;28;20481;-70
2021/09/12 01:44:04;;;;;;;5.20;4.03;;;13.60;99.90;;;;;;5092977;28;20464;-70
2021/09/12 01:46:31;;;;;;;5.83;3.60;;;13.60;99.90;;;;;;5093070;28;20957;-70
2021/09/12 01:49:02;;;;;;;3.73;3.43;;;13.50;99.90;;;;;;5093030;28;20830;-69
2021/09/12 01:51:29;;;;;;;4.10;3.80;;;13.50;99.90;;;;;;5091818;28;20454;-69
2021/09/12 01:53:56;;;;;;;4.30;3.77;;;13.50;99.90;;;;;;5093125;28;20949;-70
2021/09/12 01:56:23;;;;;;;5.20;3.67;;;13.40;99.90;;;;;;5092812;28;20461;-69
2021/09/12 01:58:51;;;;;;;4.03;3.70;;;13.40;99.90;;;;;;5093099;28;20513;-69
2021/09/12 02:01:17;;;;;;;5.13;4.63;;;13.40;99.90;;;;;;5092168;28;20480;-70
2021/09/12 02:03:45;;;;;;;4.50;3.37;;;13.40;99.90;;;;;;5254031;22;20498;-66
2021/09/12 02:06:12;;;;;;;5.50;4.57;;;13.30;99.90;;;;;;5072047;28;20517;-67
2021/09/12 02:08:38;;;;;;;4.93;3.70;;;13.30;99.90;;;;;;5072275;28;20478;-68
2021/09/12 02:11:05;;;;;;;4.20;3.87;;;13.30;99.90;;;;;;5072217;28;20458;-69
2021/09/12 02:13:32;;;;;;;4.93;4.13;;;13.20;99.90;;;;;;5071941;28;20482;-68
2021/09/12 02:16:00;;;;;;;4.47;4.07;;;13.20;99.90;;;;;;5072672;28;20463;-68
2021/09/12 02:18:27;;;;;;;7.63;3.47;;;13.20;99.90;;;;;;5072303;28;20475;-68
2021/09/12 02:20:53;;;;;;;4.13;3.73;;;13.20;99.90;;;;;;5071653;28;20463;-68
2021/09/12 02:23:20;;;;;;;7.07;4.17;;;13.20;99.90;;;;;;5072069;28;20458;-68
2021/09/12 02:25:47;;;;;;;5.17;4.30;;;13.20;99.90;;;;;;5071822;28;20458;-68
2021/09/12 02:28:14;;;;;;;6.27;3.67;;;13.20;99.90;;;;;;5071882;28;20489;-68
2021/09/12 02:30:41;;;;;;;5.37;4.00;;;13.20;99.90;;;;;;5071302;28;20466;-68
2021/09/12 02:33:10;;;;;;;4.63;3.47;;;13.10;99.90;;;;;;5071913;28;20455;-68
2021/09/12 02:35:36;;;;;;;5.67;3.30;;;13.10;99.90;;;;;;5071628;28;20466;-68
2021/09/12 02:38:03;;;;;;;3.83;3.43;;;13.00;99.90;;;;;;5072001;28;20868;-68
2021/09/12 02:40:30;;;;;;;4.00;3.70;;;13.00;99.90;;;;;;5071808;28;20878;-68
2021/09/12 02:42:56;;;;;;;4.60;4.20;;;13.00;99.90;;;;;;5070872;28;21019;-68
2021/09/12 02:45:23;;;;;;;3.90;3.50;;;13.00;99.90;;;;;;5070959;28;20450;-68
2021/09/12 02:47:50;;;;;;;3.80;3.50;;;12.90;99.90;;;;;;5071438;28;20478;-68
2021/09/12 02:50:18;;;;;;;5.03;3.73;;;12.90;99.90;;;;;;5071648;28;20458;-68
2021/09/12 02:52:45;;;;;;;5.20;3.90;;;12.80;99.90;;;;;;5066254;28;20459;-68
2021/09/12 02:55:12;;;;;;;4.80;4.30;;;12.80;99.90;;;;;;5069568;28;20489;-68
2021/09/12 02:57:40;;;;;;;5.03;3.80;;;12.80;99.90;;;;;;5069325;28;20489;-68
2021/09/12 03:00:08;;;;;;;5.23;4.40;;;12.80;99.90;;;;;;5069521;28;20476;-67
2021/09/12 03:02:35;;;;;;;4.30;3.90;;;12.70;99.90;;;;;;5070047;28;20486;-68
2021/09/12 03:05:01;;;;;;;6.60;4.37;;;12.70;99.90;;;;;;5070858;28;20466;-67
2021/09/12 03:07:29;;;;;;;4.90;4.13;;;12.70;99.90;;;;;;5071363;28;20482;-67
2021/09/12 03:09:56;;;;;;;4.70;3.30;;;12.70;99.90;;;;;;5071094;28;20825;-67
2021/09/12 03:12:23;;;;;;;3.83;3.53;;;12.70;99.90;;;;;;5070781;28;20461;-67
2021/09/12 03:14:50;;;;;;;3.80;3.50;;;12.70;99.90;;;;;;5070783;28;20466;-68
2021/09/12 03:17:16;;;;;;;4.40;3.70;;;12.70;99.90;;;;;;5071119;28;20486;-68
2021/09/12 03:19:43;;;;;;;4.80;4.40;;;12.60;99.90;;;;;;5071104;28;20840;-67
2021/09/12 03:22:10;;;;;;;4.30;3.90;;;12.60;99.90;;;;;;5070141;28;20528;-68
2021/09/12 03:24:38;;;;;;;3.90;3.60;;;12.60;99.90;;;;;;5071154;28;21156;-68
2021/09/12 03:27:05;;;;;;;4.03;3.63;;;12.60;99.90;;;;;;5070643;28;20494;-68
2021/09/12 03:29:32;;;;;;;6.67;3.93;;;12.60;99.90;;;;;;5071161;28;20465;-67
2021/09/12 03:31:58;;;;;;;4.20;3.87;;;12.60;99.90;;;;;;5070120;28;20459;-68
2021/09/12 03:34:25;;;;;;;6.77;4.20;;;12.60;99.90;;;;;;5070938;28;20817;-68
2021/09/12 03:36:52;;;;;;;5.23;3.20;;;12.60;99.90;;;;;;5070726;28;20466;-68
2021/09/12 03:39:19;;;;;;;4.23;3.83;;;12.60;99.90;;;;;;5070875;28;20458;-68
2021/09/12 03:41:47;;;;;;;7.43;3.67;;;12.60;99.90;;;;;;5070275;28;20479;-67
2021/09/12 03:44:14;;;;;;;5.80;4.00;;;12.50;99.90;;;;;;5070575;28;20823;-68
2021/09/12 03:46:41;;;;;;;5.43;4.13;;;12.50;99.90;;;;;;5070640;28;20466;-68
2021/09/12 03:49:07;;;;;;;4.47;4.07;;;12.50;99.90;;;;;;5070433;28;20848;-68
2021/09/12 03:51:34;;;;;;;4.77;3.90;;;12.50;99.90;;;;;;5070408;28;20462;-68
2021/09/12 03:54:01;;;;;;;3.93;3.53;;;12.40;99.90;;;;;;5070284;28;20467;-67
2021/09/12 03:56:28;;;;;;;4.00;3.27;;;12.40;99.90;;;;;;5070762;28;20458;-67
2021/09/12 03:58:56;;;;;;;3.87;3.50;;;12.40;99.90;;;;;;5070461;28;20490;-67
2021/09/12 04:01:22;;;;;;;4.73;3.77;;;12.30;99.90;;;;;;5069920;28;20980;-67
2021/09/12 04:03:49;;;;;;;4.80;4.00;;;12.30;99.90;;;;;;5070346;28;20470;-67
2021/09/12 04:06:16;;;;;;;3.43;3.13;;;12.30;99.90;;;;;;5070206;28;20469;-67
2021/09/12 04:08:43;;;;;;;5.40;4.20;;;12.20;99.90;;;;;;5070686;28;20518;-67
2021/09/12 04:11:09;;;;;;;4.23;3.83;;;12.20;99.90;;;;;;5069791;28;20204;-67
2021/09/12 04:13:36;;;;;;;4.93;3.53;;;12.20;99.90;;;;;;5071975;28;20466;-67
2021/09/12 04:16:04;;;;;;;9.10;4.30;;;12.20;99.90;;;;;;5074348;28;20462;-67
2021/09/12 04:18:31;;;;;;;4.33;3.93;;;12.20;99.90;;;;;;5074430;28;20482;-67
2021/09/12 04:20:58;;;;;;;4.07;3.67;;;12.20;99.90;;;;;;5074017;28;20820;-67
2021/09/12 04:23:24;;;;;;;4.00;3.60;;;12.10;99.90;;;;;;5074296;28;20490;-67
2021/09/12 04:25:51;;;;;;;4.53;3.40;;;12.10;99.90;;;;;;5074406;28;20667;-67
2021/09/12 04:28:18;;;;;;;5.38;3.63;;;12.10;99.90;;;;;;5074375;28;20481;-67
2021/09/12 04:30:45;;;;;;;4.30;3.90;;;12.10;99.90;;;;;;5074764;28;20200;-67
2021/09/12 04:33:13;;;;;;;4.60;4.20;;;12.10;99.90;;;;;;5074003;28;20458;-67
2021/09/12 04:35:40;;;;;;;4.43;4.03;;;12.00;99.90;;;;;;5074604;28;20467;-67
2021/09/12 04:38:07;;;;;;;6.03;4.10;;;12.00;99.90;;;;;;5074146;28;20490;-67
2021/09/12 04:40:33;;;;;;;4.93;4.15;;;12.00;99.90;;;;;;5074061;28;20678;-68
2021/09/12 04:43:00;;;;;;;4.97;4.00;;;12.00;99.90;;;;;;5073619;28;20227;-67
2021/09/12 04:45:27;;;;;;;4.10;3.60;;;12.00;99.90;;;;;;5074072;28;20458;-67
2021/09/12 04:47:54;;;;;;;4.20;3.80;;;11.90;99.90;;;;;;5073638;28;20254;-67
2021/09/12 04:50:22;;;;;;;4.30;3.80;;;11.90;99.90;;;;;;5073549;28;20211;-67
2021/09/12 04:52:49;;;;;;;7.15;3.90;;;11.90;99.90;;;;;;5073274;28;20482;-68
2021/09/12 04:55:15;;;;;;;4.00;3.70;;;11.90;99.90;;;;;;5073413;28;20207;-68
2021/09/12 04:57:44;;;;;;;4.15;3.75;;;11.90;99.90;;;;;;5072904;28;20223;-67
2021/09/12 05:00:11;;;;;;;4.85;3.72;;;11.90;99.90;;;;;;5073320;28;20299;-68
2021/09/12 05:02:39;;;;;;;3.80;3.20;;;11.90;99.90;;;;;;5072619;28;20220;-68
2021/09/12 05:05:06;;;;;;;3.60;3.15;;;11.90;99.90;;;;;;5073253;28;20221;-67
2021/09/12 05:07:34;;;;;;;4.45;3.67;;;11.90;99.90;;;;;;5073285;28;20227;-67
2021/09/12 05:10:01;;;;;;;4.05;3.70;;;11.90;99.90;;;;;;5073484;28;20205;-67
2021/09/12 05:12:28;;;;;;;4.60;4.20;;;11.80;99.90;;;;;;5072811;28;20199;-67
2021/09/12 05:14:55;;;;;;;5.07;4.10;;;11.90;99.90;;;;;;5073278;28;20548;-67
2021/09/12 05:17:22;;;;;;;5.82;3.97;;;11.80;99.90;;;;;;5073190;28;20224;-67
2021/09/12 05:19:49;;;;;;;5.25;4.05;;;11.80;99.90;;;;;;5073086;28;20598;-67
2021/09/12 05:22:16;;;;;;;8.20;4.43;;;11.80;99.90;;;;;;5072679;28;20579;-67
2021/09/12 05:24:44;;;;;;;4.25;3.85;;;11.80;99.90;;;;;;5072318;28;20212;-67
2021/09/12 05:27:11;;;;;;;4.57;3.70;;;11.80;99.90;;;;;;5073217;28;20224;-67
2021/09/12 05:29:37;;;;;;;5.38;4.20;;;11.90;99.90;;;;;;5073080;28;20201;-67
2021/09/12 05:32:05;;;;;;;4.53;4.13;;;11.90;99.90;;;;;;5072493;28;20200;-68
2021/09/12 05:34:32;;;;;;;4.35;3.95;;;11.90;99.90;;;;;;5072963;28;20208;-67
2021/09/12 05:36:58;;;;;;;4.85;3.70;;;11.90;99.90;;;;;;5072849;28;20196;-67
2021/09/12 05:39:25;;;;;;;4.95;4.22;;;11.90;99.90;;;;;;5073086;28;20223;-67
2021/09/12 05:41:53;;;;;;;5.65;4.68;;;12.00;99.90;;;;;;5072115;28;20207;-67
2021/09/12 05:44:20;;;;;;;4.85;4.35;;;12.10;99.90;;;;;;5073204;28;20212;-67
2021/09/12 05:46:47;;;;;;;5.60;3.85;;;12.10;99.90;;;;;;5072420;28;20196;-67
2021/09/12 05:49:14;;;;;;;4.38;3.97;;;12.10;99.90;;;;;;5072781;28;20197;-67
2021/09/12 05:51:41;;;;;;;4.32;3.88;;;12.20;99.90;;;;;;5072350;28;20231;-67
2021/09/12 05:54:07;;;;;;;6.13;3.80;;;12.20;99.90;;;;;;5072574;28;21282;-67
2021/09/12 05:56:34;;;;;;;4.72;4.28;;;12.30;99.90;;;;;;5072758;28;20196;-67
2021/09/12 05:59:02;;;;;;;5.68;3.90;;;12.30;99.90;;;;;;5072510;28;20589;-67
2021/09/12 06:01:29;;;;;;;5.97;4.23;;;12.30;99.90;;;;;;5072137;28;20606;-67
2021/09/12 06:03:56;;;;;;;4.40;4.00;;;12.30;99.90;;;;;;5071982;28;20509;-67
2021/09/12 06:06:22;;;;;;;5.03;4.53;;;12.40;99.90;;;;;;5072640;28;20659;-67
2021/09/12 06:08:49;;;;;;;4.45;3.90;;;12.50;99.90;;;;;;5072407;28;20231;-67
2021/09/12 06:11:16;;;;;;;5.45;4.95;;;12.60;99.90;;;;;;5071912;28;20208;-67
2021/09/12 06:13:42;;;;;;;4.10;3.57;;;12.60;99.90;;;;;;5072155;28;20208;-67
2021/09/12 06:16:10;;;;;;;4.60;4.20;;;12.60;99.90;;;;;;5071872;28;20466;-66
2021/09/12 06:18:37;;;;;;;4.63;4.23;;;12.80;99.90;;;;;;5072422;28;20474;-67
2021/09/12 06:21:06;;;;;;;6.13;4.45;;;12.80;99.90;;;;;;5071422;28;20458;-67
2021/09/12 06:23:33;;;;;;;4.23;3.87;;;12.90;99.90;;;;;;5072245;28;20266;-67
2021/09/12 06:25:59;;;;;;;4.90;4.37;;;13.00;99.90;;;;;;5071901;28;20949;-67
2021/09/12 06:28:26;;;;;;;4.50;3.87;;;13.10;99.90;;;;;;5072116;28;20494;-67
2021/09/12 06:30:53;;;;;;;5.30;4.00;;;13.10;99.90;;;;;;5071793;28;20840;-67
2021/09/12 06:33:21;;;;;;;7.30;3.80;;;13.20;99.90;;;;;;5071535;28;20466;-67
2021/09/12 06:35:48;;;;;;;7.20;4.57;;;13.30;99.90;;;;;;5071843;28;20474;-67
2021/09/12 06:38:14;;;;;;;5.67;4.80;;;13.30;99.90;;;;;;5071522;28;20470;-67
2021/09/12 06:40:41;;;;;;;4.30;4.00;;;13.40;99.90;;;;;;5071910;28;20458;-67
2021/09/12 06:43:08;;;;;;;4.30;3.90;;;13.60;99.90;;;;;;5070265;28;20494;-67
2021/09/12 06:45:35;;;;;;;4.80;4.10;;;13.70;99.90;;;;;;5068761;28;20462;-67
2021/09/12 06:48:03;;;;;;;5.50;4.40;;;13.80;99.90;;;;;;5070717;28;20482;-67
2021/09/12 06:50:31;;;;;;;6.47;4.20;;;13.90;99.90;;;;;;5071170;28;20454;-67
2021/09/12 06:52:58;;;;;;;7.90;4.73;;;14.00;99.90;;;;;;5070106;28;20954;-67
2021/09/12 06:55:24;;;;;;;5.53;5.00;;;14.10;99.90;;;;;;5069459;28;20455;-67
2021/09/12 06:57:51;;;;;;;4.80;4.40;;;14.30;99.90;;;;;;5070086;28;21016;-67
2021/09/12 07:00:18;;;;;;;6.13;5.50;;;14.40;99.90;;;;;;5069944;28;20463;-67
2021/09/12 07:02:45;;;;;;;5.20;4.70;;;14.50;99.90;;;;;;5069849;28;20489;-67
2021/09/12 07:05:12;;;;;;;5.50;5.00;;;14.70;99.90;;;;;;5069543;28;21262;-67
2021/09/12 07:07:40;;;;;;;5.73;5.23;;;14.80;99.90;;;;;;5070143;28;20477;-67
2021/09/12 07:10:08;;;;;;;5.30;4.83;;;15.00;99.90;;;;;;5057519;28;20467;-67
2021/09/12 07:12:35;;;;;;;5.77;5.20;;;15.10;99.90;;;;;;5049562;28;20455;-67
2021/09/12 07:15:01;;;;;;;4.93;4.43;;;15.20;99.90;;;;;;5060168;28;20454;-67
2021/09/12 07:17:28;;;;;;;5.37;4.87;;;15.30;99.90;;;;;;5050496;28;20471;-67
2021/09/12 07:19:55;;;;;;;5.17;4.77;;;15.40;99.90;;;;;;5049743;28;20451;-67
2021/09/12 07:22:21;;;;;;;4.73;4.33;;;15.40;99.90;;;;;;5052033;28;20497;-67
2021/09/12 07:24:49;;;;;;;5.03;4.53;;;15.50;99.90;;;;;;5053181;28;20486;-67
2021/09/12 07:27:16;;;;;;;4.53;4.13;;;15.60;99.90;;;;;;5068566;28;20482;-67
2021/09/12 07:29:43;;;;;;;4.97;4.50;;;15.70;99.90;;;;;;5069691;28;20462;-67
2021/09/12 07:32:09;;;;;;;5.00;4.60;;;15.80;99.90;;;;;;5069949;28;20467;-66
2021/09/12 07:34:36;;;;;;;4.53;4.13;;;16.00;99.90;;;;;;5070025;28;20447;-67
2021/09/12 07:37:04;;;;;;;4.53;4.13;;;16.10;99.90;;;;;;5070432;28;20487;-67
2021/09/12 07:39:30;;;;;;;5.07;4.47;;;16.30;99.90;;;;;;5070597;28;20454;-67
2021/09/12 07:41:58;;;;;;;4.03;3.73;;;16.50;99.90;;;;;;5069933;28;20857;-67
2021/09/12 07:44:25;;;;;;;3.93;3.57;;;16.60;99.90;;;;;;5070259;28;20489;-67
2021/09/12 07:46:52;;;;;;;4.37;3.97;;;16.80;99.90;;;;;;5070249;28;20462;-67
2021/09/12 07:49:18;;;;;;;4.30;3.90;;;16.90;99.90;;;;;;5069923;28;20481;-67
2021/09/12 07:51:45;;;;;;;5.33;4.17;;;17.10;99.90;;;;;;5070094;28;20466;-67
2021/09/12 07:54:12;;;;;;;4.27;3.97;;;17.20;99.90;;;;;;5070221;28;20807;-67
2021/09/12 07:56:39;;;;;;;3.73;3.43;;;17.30;99.90;;;;;;5070305;28;20466;-67
2021/09/12 07:59:07;;;;;;;3.47;3.10;;;17.50;99.90;;;;;;5070183;28;20486;-67
2021/09/12 08:01:33;;;;;;;4.07;3.70;;;17.70;99.90;;;;;;5069702;28;20458;-67
2021/09/12 08:04:00;;;;;;;4.90;3.90;;;17.90;99.90;;;;;;5141548;22;20595;-71
2021/09/12 08:06:27;;;;;;;4.10;3.10;;;18.00;99.90;;;;;;5059162;28;20827;-71
2021/09/12 08:08:54;;;;;;;3.50;3.20;;;18.20;99.90;;;;;;5066380;28;21020;-71
2021/09/12 08:11:21;;;;;;;3.63;3.33;;;18.40;99.90;;;;;;5068753;28;20458;-72
2021/09/12 08:13:48;;;;;;;3.87;3.30;;;18.50;99.90;;;;;;5068341;28;20516;-72
2021/09/12 08:16:17;;;;;;;4.23;3.83;;;18.70;99.90;;;;;;5068897;28;20464;-71
2021/09/12 08:18:45;;;;;;;3.40;3.20;;;18.80;99.90;;;;;;5068387;28;20506;-71
2021/09/12 08:21:12;;;;;;;3.60;3.30;;;18.90;99.90;;;;;;5067990;28;20458;-72
2021/09/12 08:23:39;;;;;;;3.60;3.30;;;18.90;99.90;;;;;;5068023;28;20526;-73
2021/09/12 08:26:07;;;;;;;3.37;3.07;;;19.10;99.90;;;;;;5068436;28;20950;-72
2021/09/12 08:28:35;;;;;;;3.67;3.37;;;19.20;99.90;;;;;;5068446;28;20529;-71
2021/09/12 08:31:02;;;;;;;4.40;4.00;;;19.40;99.90;;;;;;5066363;28;20517;-72
2021/09/12 08:33:30;;;;;;;3.67;3.30;;;19.50;99.90;;;;;;5065626;28;20450;-72
2021/09/12 08:35:58;;;;;;;3.27;2.97;;;19.60;99.90;;;;;;5069071;28;20462;-72
2021/09/12 08:38:24;;;;;;;2.87;2.67;;;19.70;99.90;;;;;;5069565;28;20543;-72
2021/09/12 08:40:57;;;;;;;4.17;3.77;;;19.80;99.90;;;;;;5069247;28;20968;-72
2021/09/12 08:43:24;;;;;;;4.70;3.20;;;19.90;99.90;;;;;;5068788;28;20965;-72
2021/09/12 08:45:51;;;;;;;3.30;3.00;;;20.00;99.90;;;;;;5069051;28;20544;-72
2021/09/12 08:48:18;;;;;;;2.93;2.73;;;20.10;99.90;;;;;;5068908;28;20481;-72
2021/09/12 08:50:47;;;;;;;3.27;2.97;;;20.20;99.90;;;;;;5069272;28;20942;-72
2021/09/12 08:53:14;;;;;;;3.20;2.90;;;20.20;99.90;;;;;;5068550;28;20553;-72
2021/09/12 08:55:41;;;;;;;3.30;3.00;;;20.20;99.90;;;;;;5069109;28;20463;-72
2021/09/12 08:58:08;;;;;;;3.23;3.00;;;20.30;99.90;;;;;;5068603;28;20474;-72
2021/09/12 09:00:34;;;;;;;3.27;2.97;;;20.40;99.90;;;;;;5070521;28;20458;-72
2021/09/12 09:03:04;;;;;;;3.10;2.80;;;20.50;99.90;;;;;;5072011;28;20454;-72
2021/09/12 09:05:33;;;;;;;2.97;2.77;;;20.50;99.90;;;;;;5071467;28;21313;-72
2021/09/12 09:08:08;;;;;;;2.70;2.47;;;20.60;99.90;;;;;;5072509;28;21049;-72
2021/09/12 09:10:40;;;;;;;2.80;2.60;;;20.70;99.90;;;;;;5072636;28;20457;-72
2021/09/12 09:13:25;;;;;;;2.70;2.50;;;20.80;99.90;;;;;;5072340;28;20940;-73
2021/09/12 09:15:52;;;;;;;2.47;2.23;;;20.90;99.90;;;;;;5072186;28;20462;-72
2021/09/12 09:18:29;;;;;;;2.70;2.50;;;21.10;99.90;;;;;;5072662;28;20482;-72
2021/09/12 09:20:56;;;;;;;2.93;2.63;;;21.10;99.90;;;;;;5071826;28;20469;-72
2021/09/12 09:23:24;;;;;;;2.70;2.20;;;21.10;99.90;;;;;;5071982;28;20547;-72
2021/09/12 09:25:52;;;;;;;2.93;2.73;;;21.00;99.90;;;;;;5072044;28;20458;-72
2021/09/12 09:28:19;;;;;;;2.57;2.37;;;21.00;99.90;;;;;;5071759;28;20557;-72
2021/09/12 09:30:51;;;;;;;2.80;2.60;;;21.10;99.90;;;;;;5072564;28;20458;-71
2021/09/12 09:33:22;;;;;;;2.83;2.63;;;21.20;99.90;;;;;;5071724;28;20463;-72
2021/09/12 09:35:55;;;;;;;2.80;2.20;;;21.40;99.90;;;;;;5072191;28;21038;-72
2021/09/12 09:38:24;;;;;;;2.80;2.60;;;21.50;99.90;;;;;;5071972;28;20490;-72
2021/09/12 09:40:59;;;;;;;3.00;2.80;;;21.60;99.90;;;;;;5072074;28;20458;-72
2021/09/12 09:43:36;;;;;;;3.20;2.43;;;21.70;99.90;;;;;;5071468;28;20557;-72
2021/09/12 09:46:03;;;;;;;3.90;2.70;;;21.80;99.90;;;;;;5071834;28;20462;-72
2021/09/12 09:48:32;;;;;;;3.47;3.17;;;22.00;99.90;;;;;;5072180;28;20482;-72
2021/09/12 09:51:00;;;;;;;2.87;2.67;;;22.10;99.90;;;;;;5071619;28;20506;-72
2021/09/12 09:53:29;;;;;;;3.27;3.07;;;22.20;99.90;;;;;;5071728;28;20454;-72
2021/09/12 09:55:57;;;;;;;2.90;2.53;;;22.20;99.90;;;;;;5070219;28;20458;-72
2021/09/12 09:58:23;;;;;;;3.20;2.63;;;22.20;99.90;;;;;;5071798;28;20843;-72
2021/09/12 10:00:50;;;;;;;3.20;2.90;;;22.30;99.90;;;;;;5071625;28;20564;-72
2021/09/12 10:03:18;;;;;;;2.77;2.57;;;22.30;99.90;;;;;;5069514;28;20467;-72
2021/09/12 10:05:46;;;;;;;2.90;2.60;;;22.40;99.90;;;;;;5069845;28;20463;-72
2021/09/12 10:08:14;;;;;;;3.53;3.10;;;22.50;99.90;;;;;;5069649;28;20521;-72
2021/09/12 10:10:42;;;;;;;3.13;2.93;;;22.50;99.90;;;;;;5069555;28;20494;-72
2021/09/12 10:13:09;;;;;;;3.00;2.80;;;22.60;99.90;;;;;;5068868;28;21039;-73
2021/09/12 10:15:38;;;;;;;3.70;2.97;;;22.80;99.90;;;;;;5069953;28;20469;-73
2021/09/12 10:18:06;;;;;;;3.07;2.73;;;23.00;99.90;;;;;;5069743;28;20879;-73
2021/09/12 10:20:35;;;;;;;3.00;2.80;;;23.00;99.90;;;;;;5068949;28;20490;-74
2021/09/12 10:23:04;;;;;;;3.50;2.57;;;23.00;99.90;;;;;;5068731;28;20450;-74
2021/09/12 10:25:32;;;;;;;2.63;2.20;;;23.10;99.90;;;;;;5069429;28;20489;-73
2021/09/12 10:28:03;;;;;;;3.90;2.77;;;23.20;99.90;;;;;;5069595;28;20827;-73
2021/09/12 10:30:36;;;;;;;3.10;2.80;;;23.20;99.90;;;;;;5070941;28;20461;-73
2021/09/12 10:33:22;;;;;;;3.73;2.40;;;23.10;99.90;;;;;;5068536;28;20996;-73
2021/09/12 10:35:58;;;;;;;4.00;3.20;;;22.90;99.90;;;;;;5068493;28;20455;-73
2021/09/12 10:38:29;;;;;;;3.20;3.00;;;22.80;99.90;;;;;;5068809;28;20537;-73
2021/09/12 10:41:16;;;;;;;4.00;3.17;;;22.80;99.90;;;;;;5068008;28;20542;-73
2021/09/12 10:43:52;;;;;;;2.13;2.03;;;22.80;99.90;;;;;;5070150;28;21050;-74
2021/09/12 10:46:30;;;;;;;4.20;2.80;;;22.70;99.90;;;;;;5065958;28;20549;-73
2021/09/12 10:49:15;;;;;;;3.07;2.77;;;22.60;99.90;;;;;;5065727;28;20474;-74
2021/09/12 10:51:46;;;;;;;3.73;2.90;;;22.40;99.90;;;;;;5068018;28;21137;-74
2021/09/12 10:54:13;;;;;;;3.17;2.80;;;22.30;99.90;;;;;;5069601;28;20498;-74
2021/09/12 10:56:41;;;;;;;3.27;2.50;;;22.10;99.90;;;;;;5069620;28;20841;-74
2021/09/12 10:59:14;;;;;;;2.80;2.60;;;22.00;99.90;;;;;;5069846;28;20486;-74
2021/09/12 11:01:45;;;;;;;2.77;2.53;;;21.90;99.90;;;;;;5068801;28;20458;-74
2021/09/12 11:04:13;;;;;;;3.37;2.60;;;21.80;99.90;;;;;;5070098;28;20897;-74
2021/09/12 11:06:43;;;;;;;2.60;2.40;;;21.70;99.90;;;;;;5069894;28;20458;-73
2021/09/12 11:09:18;;;;;;;2.57;2.37;;;21.60;99.90;;;;;;5070566;28;20970;-74
2021/09/12 11:11:45;;;;;;;2.90;2.70;;;21.50;99.90;;;;;;5069840;28;20484;-73
2021/09/12 11:14:17;;;;;;;2.83;2.63;;;21.50;99.90;;;;;;5070149;28;20450;-74
2021/09/12 11:16:44;;;;;;;3.13;2.83;;;21.60;99.90;;;;;;5066838;28;20467;-74
2021/09/12 11:19:11;;;;;;;2.50;2.30;;;21.80;99.90;;;;;;5070443;28;20469;-73
2021/09/12 11:21:39;;;;;;;3.40;2.67;;;22.00;99.90;;;;;;5070294;28;20976;-73
2021/09/12 11:24:08;;;;;;;3.60;2.20;;;22.10;99.90;;;;;;5070129;28;20478;-73
2021/09/12 11:26:44;;;;;;;2.63;2.43;;;22.10;99.90;;;;;;5069936;28;20485;-73
2021/09/12 11:29:12;;;;;;;3.37;2.33;;;22.10;99.90;;;;;;5070918;28;20469;-73
2021/09/12 11:31:42;;;;;;;2.40;2.20;;;22.30;99.90;;;;;;5069769;28;20492;-73
2021/09/12 11:34:09;;;;;;;3.10;2.80;;;22.60;99.90;;;;;;5070619;28;20465;-73
2021/09/12 11:36:47;;;;;;;2.27;2.17;;;22.70;99.90;;;;;;5069345;28;20513;-73
2021/09/12 11:39:15;;;;;;;2.50;2.20;;;23.00;99.90;;;;;;5070821;28;20465;-73
2021/09/12 11:41:44;;;;;;;2.90;2.13;;;23.20;99.90;;;;;;5070288;28;20455;-73
2021/09/12 11:44:11;;;;;;;2.50;2.30;;;23.40;99.90;;;;;;5070959;28;21076;-73
2021/09/12 11:46:45;;;;;;;2.77;2.40;;;23.60;99.90;;;;;;5070229;28;20986;-73
2021/09/12 11:49:11;;;;;;;6.83;2.47;;;23.80;99.90;;;;;;5070867;28;20449;-73
2021/09/12 11:51:40;;;;;;;2.60;2.40;;;23.90;99.90;;;;;;5069753;28;20464;-73
2021/09/12 11:54:10;;;;;;;2.80;2.37;;;23.70;99.90;;;;;;5070722;28;20557;-73
2021/09/12 11:56:38;;;;;;;2.63;2.40;;;23.70;99.90;;;;;;5083517;28;20481;-73
2021/09/12 11:59:06;;;;;;;2.37;2.17;;;23.80;99.90;;;;;;5079533;28;20474;-73
2021/09/12 12:01:34;;;;;;;2.50;2.30;;;23.90;99.90;;;;;;5069184;28;20854;-73
2021/09/12 12:04:05;;;;;;;2.30;2.10;;;23.80;99.90;;;;;;5069518;28;20458;-73
2021/09/12 12:06:33;;;;;;;2.87;2.47;;;23.50;99.90;;;;;;5069477;28;20456;-73
2021/09/12 12:09:04;;;;;;;3.23;2.93;;;23.30;99.90;;;;;;5069895;28;20480;-73
2021/09/12 12:11:31;;;;;;;2.50;2.30;;;23.20;99.90;;;;;;5065605;28;21091;-73
2021/09/12 12:13:58;;;;;;;2.97;2.60;;;22.90;99.90;;;;;;5068672;28;20466;-73
2021/09/12 12:16:24;;;;;;;2.40;2.20;;;22.70;99.90;;;;;;5067993;28;20462;-73
2021/09/12 12:19:01;;;;;;;3.50;2.40;;;22.60;99.90;;;;;;5068347;28;20990;-73
2021/09/12 12:21:31;;;;;;;2.60;2.40;;;22.40;99.90;;;;;;5068160;28;20542;-73
2021/09/12 12:23:59;;;;;;;2.23;2.03;;;22.30;99.90;;;;;;5068234;28;21290;-73
2021/09/12 12:26:25;;;;;;;2.63;2.43;;;22.10;99.90;;;;;;5068635;28;20820;-73
2021/09/12 12:29:01;;;;;;;2.73;2.40;;;22.00;99.90;;;;;;5067647;28;20536;-73
2021/09/12 12:31:28;;;;;;;2.93;2.60;;;22.00;99.90;;;;;;5068197;28;20461;-73
2021/09/12 12:33:55;;;;;;;4.77;2.90;;;21.90;99.90;;;;;;5067996;28;20485;-73
2021/09/12 12:36:23;;;;;;;2.67;2.47;;;21.90;99.90;;;;;;5064453;28;20463;-73
2021/09/12 12:38:51;;;;;;;2.80;2.60;;;22.00;99.90;;;;;;5059154;28;20482;-73
2021/09/12 12:41:20;;;;;;;2.70;2.50;;;22.10;99.90;;;;;;5072063;28;20473;-73
2021/09/12 12:43:48;;;;;;;2.60;2.40;;;22.10;99.90;;;;;;5071468;28;20463;-73
2021/09/12 12:46:15;;;;;;;2.70;2.50;;;22.00;99.90;;;;;;5071507;28;21028;-73
2021/09/12 12:48:42;;;;;;;3.83;2.60;;;21.90;99.90;;;;;;5071204;28;20485;-73
2021/09/12 12:51:12;;;;;;;2.50;2.30;;;21.80;99.90;;;;;;5068566;28;20456;-73